sensor_id;sensor_type;location;lat;lon;timestamp;P1;durP1;ratioP1;P2;durP2;ratioP2
12359;SDS011;6244;51.460;7.090;2023-05-10T00:00:57;7.13;;;4.88;;
12359;SDS011;6244;51.460;7.090;2023-05-10T00:05:55;7.00;;;4.47;;
12359;SDS011;6244;51.460;7.090;2023-05-10T00:10:52;7.13;;;5.18;;
12359;SDS011;6244;51.460;7.090;2023-05-10T00:15:49;8.73;;;5.82;;
12359;SDS011;6244;51.460;7.090;2023-05-10T00:20:45;11.45;;;6.32;;
12359;SDS011;6244;51.460;7.090;2023-05-10T00:25:45;9.93;;;6.82;;
12359;SDS011;6244;51.460;7.090;2023-05-10T00:30:41;12.93;;;6.90;;
12359;SDS011;6244;51.460;7.090;2023-05-10T00:35:38;12.98;;;7.45;;
12359;SDS011;6244;51.460;7.090;2023-05-10T00:40:35;14.15;;;8.23;;
12359;SDS011;6244;51.460;7.090;2023-05-10T00:45:33;12.80;;;7.80;;
12359;SDS011;6244;51.460;7.090;2023-05-10T00:50:32;13.15;;;8.43;;
12359;SDS011;6244;51.460;7.090;2023-05-10T00:55:29;16.25;;;8.52;;
12359;SDS011;6244;51.460;7.090;2023-05-10T01:00:26;14.93;;;9.48;;
12359;SDS011;6244;51.460;7.090;2023-05-10T01:05:24;14.13;;;8.18;;
12359;SDS011;6244;51.460;7.090;2023-05-10T01:10:22;10.93;;;6.30;;
12359;SDS011;6244;51.460;7.090;2023-05-10T01:15:18;13.32;;;7.53;;
12359;SDS011;6244;51.460;7.090;2023-05-10T01:20:17;12.75;;;8.35;;
12359;SDS011;6244;51.460;7.090;2023-05-10T01:25:29;11.13;;;7.43;;
12359;SDS011;6244;51.460;7.090;2023-05-10T01:30:44;10.15;;;6.53;;
12359;SDS011;6244;51.460;7.090;2023-05-10T01:36:02;10.27;;;6.73;;
12359;SDS011;6244;51.460;7.090;2023-05-10T01:41:05;11.55;;;6.80;;
12359;SDS011;6244;51.460;7.090;2023-05-10T01:46:09;10.75;;;6.97;;
12359;SDS011;6244;51.460;7.090;2023-05-10T01:51:11;13.15;;;7.93;;
12359;SDS011;6244;51.460;7.090;2023-05-10T01:56:08;11.85;;;7.65;;
12359;SDS011;6244;51.460;7.090;2023-05-10T02:01:07;14.05;;;7.35;;
12359;SDS011;6244;51.460;7.090;2023-05-10T02:06:05;11.43;;;7.20;;
12359;SDS011;6244;51.460;7.090;2023-05-10T02:11:05;12.20;;;8.27;;
12359;SDS011;6244;51.460;7.090;2023-05-10T02:16:02;11.95;;;7.65;;
12359;SDS011;6244;51.460;7.090;2023-05-10T02:21:01;11.00;;;6.88;;
12359;SDS011;6244;51.460;7.090;2023-05-10T02:25:58;12.75;;;7.00;;
12359;SDS011;6244;51.460;7.090;2023-05-10T02:30:59;12.65;;;7.50;;
12359;SDS011;6244;51.460;7.090;2023-05-10T02:35:56;13.13;;;7.50;;
12359;SDS011;6244;51.460;7.090;2023-05-10T02:40:53;15.30;;;9.57;;
12359;SDS011;6244;51.460;7.090;2023-05-10T02:45:50;16.55;;;8.82;;
12359;SDS011;6244;51.460;7.090;2023-05-10T02:50:48;15.40;;;8.55;;
12359;SDS011;6244;51.460;7.090;2023-05-10T02:55:49;16.63;;;9.50;;
12359;SDS011;6244;51.460;7.090;2023-05-10T03:00:47;15.98;;;9.38;;
12359;SDS011;6244;51.460;7.090;2023-05-10T03:05:44;15.23;;;8.80;;
12359;SDS011;6244;51.460;7.090;2023-05-10T03:10:45;14.65;;;7.72;;
12359;SDS011;6244;51.460;7.090;2023-05-10T03:16:05;12.30;;;7.35;;
12359;SDS011;6244;51.460;7.090;2023-05-10T03:21:07;12.27;;;7.25;;
12359;SDS011;6244;51.460;7.090;2023-05-10T03:26:08;12.88;;;8.05;;
12359;SDS011;6244;51.460;7.090;2023-05-10T03:31:08;17.33;;;9.55;;
12359;SDS011;6244;51.460;7.090;2023-05-10T03:36:05;18.55;;;11.00;;
12359;SDS011;6244;51.460;7.090;2023-05-10T03:41:02;19.58;;;10.73;;
12359;SDS011;6244;51.460;7.090;2023-05-10T03:46:02;17.55;;;10.98;;
12359;SDS011;6244;51.460;7.090;2023-05-10T03:50:58;22.27;;;12.48;;
12359;SDS011;6244;51.460;7.090;2023-05-10T03:55:55;19.77;;;11.30;;
12359;SDS011;6244;51.460;7.090;2023-05-10T04:00:51;21.50;;;12.23;;
12359;SDS011;6244;51.460;7.090;2023-05-10T04:05:49;22.67;;;13.63;;
12359;SDS011;6244;51.460;7.090;2023-05-10T04:10:54;24.88;;;13.18;;
12359;SDS011;6244;51.460;7.090;2023-05-10T04:16:00;23.30;;;12.32;;
12359;SDS011;6244;51.460;7.090;2023-05-10T04:20:58;28.83;;;13.70;;
12359;SDS011;6244;51.460;7.090;2023-05-10T04:25:58;28.08;;;14.57;;
12359;SDS011;6244;51.460;7.090;2023-05-10T04:31:00;27.38;;;15.38;;
12359;SDS011;6244;51.460;7.090;2023-05-10T04:35:58;25.90;;;15.45;;
12359;SDS011;6244;51.460;7.090;2023-05-10T04:41:03;29.65;;;15.07;;
12359;SDS011;6244;51.460;7.090;2023-05-10T04:46:00;31.27;;;17.48;;
12359;SDS011;6244;51.460;7.090;2023-05-10T04:50:56;31.95;;;17.77;;
12359;SDS011;6244;51.460;7.090;2023-05-10T04:55:54;28.15;;;15.77;;
12359;SDS011;6244;51.460;7.090;2023-05-10T05:00:51;31.20;;;18.25;;
12359;SDS011;6244;51.460;7.090;2023-05-10T05:05:47;38.22;;;20.85;;
12359;SDS011;6244;51.460;7.090;2023-05-10T05:10:44;33.55;;;19.58;;
12359;SDS011;6244;51.460;7.090;2023-05-10T05:15:42;33.70;;;18.00;;
12359;SDS011;6244;51.460;7.090;2023-05-10T05:20:38;35.03;;;20.05;;
12359;SDS011;6244;51.460;7.090;2023-05-10T05:25:35;36.92;;;18.95;;
12359;SDS011;6244;51.460;7.090;2023-05-10T05:30:32;38.53;;;19.58;;
12359;SDS011;6244;51.460;7.090;2023-05-10T05:35:30;36.40;;;19.48;;
12359;SDS011;6244;51.460;7.090;2023-05-10T05:40:26;41.60;;;20.50;;
12359;SDS011;6244;51.460;7.090;2023-05-10T05:45:23;43.65;;;21.08;;
12359;SDS011;6244;51.460;7.090;2023-05-10T05:50:19;44.40;;;21.13;;
12359;SDS011;6244;51.460;7.090;2023-05-10T05:55:17;32.75;;;19.23;;
12359;SDS011;6244;51.460;7.090;2023-05-10T06:00:14;36.70;;;20.77;;
12359;SDS011;6244;51.460;7.090;2023-05-10T06:05:11;38.67;;;19.60;;
12359;SDS011;6244;51.460;7.090;2023-05-10T06:10:09;34.47;;;18.48;;
12359;SDS011;6244;51.460;7.090;2023-05-10T06:15:08;34.30;;;19.13;;
12359;SDS011;6244;51.460;7.090;2023-05-10T06:20:06;35.47;;;18.83;;
12359;SDS011;6244;51.460;7.090;2023-05-10T06:25:03;34.55;;;17.85;;
12359;SDS011;6244;51.460;7.090;2023-05-10T06:30:01;36.33;;;17.92;;
12359;SDS011;6244;51.460;7.090;2023-05-10T06:34:59;33.63;;;18.50;;
12359;SDS011;6244;51.460;7.090;2023-05-10T06:39:55;27.67;;;16.27;;
12359;SDS011;6244;51.460;7.090;2023-05-10T06:44:52;35.53;;;17.98;;
12359;SDS011;6244;51.460;7.090;2023-05-10T06:49:48;31.30;;;16.08;;
12359;SDS011;6244;51.460;7.090;2023-05-10T06:54:46;33.85;;;18.02;;
12359;SDS011;6244;51.460;7.090;2023-05-10T06:59:43;37.08;;;18.02;;
12359;SDS011;6244;51.460;7.090;2023-05-10T07:04:40;38.17;;;20.02;;
12359;SDS011;6244;51.460;7.090;2023-05-10T07:09:36;36.60;;;17.52;;
12359;SDS011;6244;51.460;7.090;2023-05-10T07:14:34;34.35;;;16.13;;
12359;SDS011;6244;51.460;7.090;2023-05-10T07:19:31;34.05;;;18.80;;
12359;SDS011;6244;51.460;7.090;2023-05-10T07:24:27;36.05;;;18.88;;
12359;SDS011;6244;51.460;7.090;2023-05-10T07:29:24;34.95;;;17.55;;
12359;SDS011;6244;51.460;7.090;2023-05-10T07:34:22;37.83;;;18.13;;
12359;SDS011;6244;51.460;7.090;2023-05-10T07:39:19;32.03;;;16.92;;
12359;SDS011;6244;51.460;7.090;2023-05-10T07:44:16;34.42;;;17.80;;
12359;SDS011;6244;51.460;7.090;2023-05-10T07:49:13;31.70;;;18.48;;
12359;SDS011;6244;51.460;7.090;2023-05-10T07:54:11;35.25;;;17.80;;
12359;SDS011;6244;51.460;7.090;2023-05-10T07:59:08;29.90;;;15.52;;
12359;SDS011;6244;51.460;7.090;2023-05-10T08:04:04;31.63;;;17.73;;
12359;SDS011;6244;51.460;7.090;2023-05-10T08:09:02;25.65;;;13.00;;
12359;SDS011;6244;51.460;7.090;2023-05-10T08:14:00;32.33;;;17.35;;
12359;SDS011;6244;51.460;7.090;2023-05-10T08:18:56;36.22;;;19.38;;
12359;SDS011;6244;51.460;7.090;2023-05-10T08:23:53;33.63;;;19.38;;
12359;SDS011;6244;51.460;7.090;2023-05-10T08:28:49;37.20;;;16.83;;
12359;SDS011;6244;51.460;7.090;2023-05-10T08:33:47;31.80;;;16.00;;
12359;SDS011;6244;51.460;7.090;2023-05-10T08:38:44;28.90;;;15.18;;
12359;SDS011;6244;51.460;7.090;2023-05-10T08:43:40;25.73;;;13.50;;
12359;SDS011;6244;51.460;7.090;2023-05-10T08:48:41;25.00;;;12.90;;
12359;SDS011;6244;51.460;7.090;2023-05-10T08:53:40;27.25;;;14.00;;
12359;SDS011;6244;51.460;7.090;2023-05-10T08:58:37;28.10;;;14.90;;
12359;SDS011;6244;51.460;7.090;2023-05-10T09:03:33;31.25;;;15.40;;
12359;SDS011;6244;51.460;7.090;2023-05-10T09:08:31;24.25;;;13.30;;
12359;SDS011;6244;51.460;7.090;2023-05-10T09:13:29;23.73;;;12.20;;
12359;SDS011;6244;51.460;7.090;2023-05-10T09:18:27;16.73;;;9.80;;
12359;SDS011;6244;51.460;7.090;2023-05-10T09:23:23;19.60;;;11.07;;
12359;SDS011;6244;51.460;7.090;2023-05-10T09:28:26;18.55;;;10.63;;
12359;SDS011;6244;51.460;7.090;2023-05-10T09:33:24;21.70;;;11.40;;
12359;SDS011;6244;51.460;7.090;2023-05-10T09:38:21;18.83;;;10.77;;
12359;SDS011;6244;51.460;7.090;2023-05-10T09:43:18;24.95;;;11.88;;
12359;SDS011;6244;51.460;7.090;2023-05-10T09:48:14;25.88;;;13.65;;
12359;SDS011;6244;51.460;7.090;2023-05-10T09:53:12;25.90;;;13.98;;
12359;SDS011;6244;51.460;7.090;2023-05-10T09:58:11;25.73;;;13.57;;
12359;SDS011;6244;51.460;7.090;2023-05-10T10:03:11;25.73;;;12.15;;
12359;SDS011;6244;51.460;7.090;2023-05-10T10:08:10;24.00;;;13.43;;
12359;SDS011;6244;51.460;7.090;2023-05-10T10:13:09;24.77;;;12.68;;
12359;SDS011;6244;51.460;7.090;2023-05-10T10:18:06;22.38;;;12.40;;
12359;SDS011;6244;51.460;7.090;2023-05-10T10:23:03;18.10;;;10.40;;
12359;SDS011;6244;51.460;7.090;2023-05-10T10:28:09;15.85;;;9.35;;
12359;SDS011;6244;51.460;7.090;2023-05-10T10:38:55;18.00;;;12.23;;
12359;SDS011;6244;51.460;7.090;2023-05-10T10:49:22;20.75;;;11.13;;
12359;SDS011;6244;51.460;7.090;2023-05-10T10:54:23;18.90;;;10.90;;
12359;SDS011;6244;51.460;7.090;2023-05-10T10:59:26;22.77;;;13.00;;
12359;SDS011;6244;51.460;7.090;2023-05-10T11:04:24;18.13;;;9.98;;
12359;SDS011;6244;51.460;7.090;2023-05-10T11:09:20;16.33;;;10.77;;
12359;SDS011;6244;51.460;7.090;2023-05-10T11:14:20;15.27;;;8.77;;
12359;SDS011;6244;51.460;7.090;2023-05-10T11:19:18;20.00;;;10.75;;
12359;SDS011;6244;51.460;7.090;2023-05-10T11:24:17;20.38;;;11.57;;
12359;SDS011;6244;51.460;7.090;2023-05-10T11:29:16;15.40;;;9.60;;
12359;SDS011;6244;51.460;7.090;2023-05-10T11:34:22;14.05;;;8.68;;
12359;SDS011;6244;51.460;7.090;2023-05-10T11:39:21;14.98;;;9.50;;
12359;SDS011;6244;51.460;7.090;2023-05-10T11:44:21;17.23;;;9.57;;
12359;SDS011;6244;51.460;7.090;2023-05-10T11:49:18;16.13;;;9.85;;
12359;SDS011;6244;51.460;7.090;2023-05-10T11:54:14;21.70;;;10.48;;
12359;SDS011;6244;51.460;7.090;2023-05-10T11:59:13;16.35;;;9.75;;
12359;SDS011;6244;51.460;7.090;2023-05-10T12:04:10;23.40;;;11.35;;
12359;SDS011;6244;51.460;7.090;2023-05-10T12:09:07;18.80;;;9.30;;
12359;SDS011;6244;51.460;7.090;2023-05-10T12:14:04;17.98;;;10.20;;
12359;SDS011;6244;51.460;7.090;2023-05-10T12:19:02;16.85;;;10.40;;
12359;SDS011;6244;51.460;7.090;2023-05-10T12:23:59;15.77;;;10.02;;
12359;SDS011;6244;51.460;7.090;2023-05-10T12:29:11;16.25;;;9.52;;
12359;SDS011;6244;51.460;7.090;2023-05-10T12:34:09;17.90;;;9.77;;
12359;SDS011;6244;51.460;7.090;2023-05-10T12:39:06;14.80;;;9.48;;
12359;SDS011;6244;51.460;7.090;2023-05-10T12:44:02;15.43;;;8.80;;
12359;SDS011;6244;51.460;7.090;2023-05-10T12:48:59;12.18;;;8.32;;
12359;SDS011;6244;51.460;7.090;2023-05-10T12:53:57;12.90;;;7.65;;
12359;SDS011;6244;51.460;7.090;2023-05-10T12:58:53;10.60;;;6.50;;
12359;SDS011;6244;51.460;7.090;2023-05-10T13:03:50;13.20;;;6.78;;
12359;SDS011;6244;51.460;7.090;2023-05-10T13:08:46;10.30;;;5.30;;
12359;SDS011;6244;51.460;7.090;2023-05-10T13:13:44;8.25;;;5.05;;
12359;SDS011;6244;51.460;7.090;2023-05-10T13:18:41;10.38;;;5.60;;
12359;SDS011;6244;51.460;7.090;2023-05-10T13:23:37;8.02;;;5.10;;
12359;SDS011;6244;51.460;7.090;2023-05-10T13:28:34;7.22;;;4.68;;
12359;SDS011;6244;51.460;7.090;2023-05-10T13:33:32;6.82;;;4.68;;
12359;SDS011;6244;51.460;7.090;2023-05-10T13:38:28;5.82;;;4.35;;
12359;SDS011;6244;51.460;7.090;2023-05-10T13:43:25;8.32;;;4.72;;
12359;SDS011;6244;51.460;7.090;2023-05-10T13:48:21;7.95;;;4.80;;
12359;SDS011;6244;51.460;7.090;2023-05-10T13:53:19;9.95;;;4.50;;
12359;SDS011;6244;51.460;7.090;2023-05-10T13:58:16;5.07;;;3.70;;
12359;SDS011;6244;51.460;7.090;2023-05-10T14:03:12;8.98;;;5.57;;
12359;SDS011;6244;51.460;7.090;2023-05-10T14:08:09;11.02;;;6.00;;
12359;SDS011;6244;51.460;7.090;2023-05-10T14:13:07;7.53;;;5.68;;
12359;SDS011;6244;51.460;7.090;2023-05-10T14:18:03;8.75;;;5.55;;
12359;SDS011;6244;51.460;7.090;2023-05-10T14:23:00;8.00;;;5.53;;
12359;SDS011;6244;51.460;7.090;2023-05-10T14:27:56;7.72;;;5.38;;
12359;SDS011;6244;51.460;7.090;2023-05-10T14:32:54;7.50;;;4.57;;
12359;SDS011;6244;51.460;7.090;2023-05-10T14:37:53;6.95;;;4.63;;
12359;SDS011;6244;51.460;7.090;2023-05-10T14:42:50;7.07;;;3.70;;
12359;SDS011;6244;51.460;7.090;2023-05-10T14:47:47;7.13;;;3.90;;
12359;SDS011;6244;51.460;7.090;2023-05-10T14:52:45;9.25;;;4.70;;
12359;SDS011;6244;51.460;7.090;2023-05-10T14:57:42;8.65;;;4.40;;
12359;SDS011;6244;51.460;7.090;2023-05-10T15:02:42;7.25;;;4.85;;
12359;SDS011;6244;51.460;7.090;2023-05-10T15:07:38;7.32;;;5.47;;
12359;SDS011;6244;51.460;7.090;2023-05-10T15:12:36;11.55;;;7.03;;
12359;SDS011;6244;51.460;7.090;2023-05-10T15:17:33;11.35;;;7.13;;
12359;SDS011;6244;51.460;7.090;2023-05-10T15:22:29;9.43;;;6.50;;
12359;SDS011;6244;51.460;7.090;2023-05-10T15:27:26;9.15;;;6.82;;
12359;SDS011;6244;51.460;7.090;2023-05-10T15:32:24;9.25;;;6.90;;
12359;SDS011;6244;51.460;7.090;2023-05-10T15:37:21;9.77;;;6.88;;
12359;SDS011;6244;51.460;7.090;2023-05-10T15:42:18;11.95;;;8.02;;
12359;SDS011;6244;51.460;7.090;2023-05-10T15:47:15;12.43;;;8.02;;
12359;SDS011;6244;51.460;7.090;2023-05-10T15:52:13;12.15;;;8.13;;
12359;SDS011;6244;51.460;7.090;2023-05-10T15:57:09;13.88;;;8.90;;
12359;SDS011;6244;51.460;7.090;2023-05-10T16:02:06;13.93;;;8.60;;
12359;SDS011;6244;51.460;7.090;2023-05-10T16:07:03;13.68;;;8.70;;
12359;SDS011;6244;51.460;7.090;2023-05-10T16:12:01;12.57;;;8.32;;
12359;SDS011;6244;51.460;7.090;2023-05-10T16:16:57;12.73;;;7.90;;
12359;SDS011;6244;51.460;7.090;2023-05-10T16:21:54;14.60;;;9.50;;
12359;SDS011;6244;51.460;7.090;2023-05-10T16:26:50;17.38;;;10.27;;
12359;SDS011;6244;51.460;7.090;2023-05-10T16:31:48;15.85;;;10.10;;
12359;SDS011;6244;51.460;7.090;2023-05-10T16:36:45;14.55;;;10.02;;
12359;SDS011;6244;51.460;7.090;2023-05-10T16:41:41;14.90;;;10.02;;
12359;SDS011;6244;51.460;7.090;2023-05-10T16:46:38;13.90;;;9.00;;
12359;SDS011;6244;51.460;7.090;2023-05-10T16:51:36;11.90;;;6.78;;
12359;SDS011;6244;51.460;7.090;2023-05-10T16:56:32;9.40;;;6.15;;
12359;SDS011;6244;51.460;7.090;2023-05-10T17:01:29;8.50;;;5.68;;
12359;SDS011;6244;51.460;7.090;2023-05-10T17:06:26;6.88;;;4.55;;
12359;SDS011;6244;51.460;7.090;2023-05-10T17:11:24;9.10;;;5.40;;
12359;SDS011;6244;51.460;7.090;2023-05-10T17:16:21;6.78;;;4.70;;
12359;SDS011;6244;51.460;7.090;2023-05-10T17:21:18;6.85;;;4.60;;
12359;SDS011;6244;51.460;7.090;2023-05-10T17:26:14;6.65;;;5.07;;
12359;SDS011;6244;51.460;7.090;2023-05-10T17:31:12;7.78;;;4.47;;
12359;SDS011;6244;51.460;7.090;2023-05-10T17:36:08;6.43;;;4.88;;
12359;SDS011;6244;51.460;7.090;2023-05-10T17:41:05;7.82;;;5.20;;
12359;SDS011;6244;51.460;7.090;2023-05-10T17:46:02;6.45;;;4.47;;
12359;SDS011;6244;51.460;7.090;2023-05-10T17:50:59;7.03;;;4.03;;
12359;SDS011;6244;51.460;7.090;2023-05-10T17:55:56;7.20;;;4.13;;
12359;SDS011;6244;51.460;7.090;2023-05-10T18:00:55;5.07;;;3.95;;
12359;SDS011;6244;51.460;7.090;2023-05-10T18:05:52;6.47;;;4.13;;
12359;SDS011;6244;51.460;7.090;2023-05-10T18:10:50;6.32;;;3.58;;
12359;SDS011;6244;51.460;7.090;2023-05-10T18:15:47;4.65;;;3.58;;
12359;SDS011;6244;51.460;7.090;2023-05-10T18:20:43;5.32;;;3.60;;
12359;SDS011;6244;51.460;7.090;2023-05-10T18:25:40;5.00;;;3.50;;
12359;SDS011;6244;51.460;7.090;2023-05-10T18:30:39;6.03;;;3.40;;
12359;SDS011;6244;51.460;7.090;2023-05-10T18:35:36;6.85;;;4.15;;
12359;SDS011;6244;51.460;7.090;2023-05-10T18:40:34;5.22;;;4.00;;
12359;SDS011;6244;51.460;7.090;2023-05-10T18:45:30;6.20;;;4.60;;
12359;SDS011;6244;51.460;7.090;2023-05-10T18:50:28;10.20;;;5.63;;
12359;SDS011;6244;51.460;7.090;2023-05-10T18:55:25;10.25;;;5.80;;
12359;SDS011;6244;51.460;7.090;2023-05-10T19:00:22;9.13;;;6.22;;
12359;SDS011;6244;51.460;7.090;2023-05-10T19:05:19;10.85;;;6.07;;
12359;SDS011;6244;51.460;7.090;2023-05-10T19:10:17;8.07;;;5.63;;
12359;SDS011;6244;51.460;7.090;2023-05-10T19:15:13;7.97;;;6.03;;
12359;SDS011;6244;51.460;7.090;2023-05-10T19:20:10;11.45;;;5.82;;
12359;SDS011;6244;51.460;7.090;2023-05-10T19:25:07;10.35;;;6.65;;
12359;SDS011;6244;51.460;7.090;2023-05-10T19:30:06;8.60;;;5.95;;
12359;SDS011;6244;51.460;7.090;2023-05-10T19:35:04;11.05;;;6.47;;
12359;SDS011;6244;51.460;7.090;2023-05-10T19:40:01;10.57;;;6.38;;
12359;SDS011;6244;51.460;7.090;2023-05-10T19:44:57;10.52;;;6.60;;
12359;SDS011;6244;51.460;7.090;2023-05-10T19:49:55;9.63;;;6.47;;
12359;SDS011;6244;51.460;7.090;2023-05-10T19:54:52;12.80;;;6.63;;
12359;SDS011;6244;51.460;7.090;2023-05-10T19:59:49;10.15;;;7.00;;
12359;SDS011;6244;51.460;7.090;2023-05-10T20:04:45;11.00;;;6.82;;
12359;SDS011;6244;51.460;7.090;2023-05-10T20:09:43;10.15;;;6.90;;
12359;SDS011;6244;51.460;7.090;2023-05-10T20:14:39;9.70;;;6.30;;
12359;SDS011;6244;51.460;7.090;2023-05-10T20:19:36;13.10;;;7.25;;
12359;SDS011;6244;51.460;7.090;2023-05-10T20:24:32;11.45;;;7.45;;
12359;SDS011;6244;51.460;7.090;2023-05-10T20:29:30;11.40;;;8.13;;
12359;SDS011;6244;51.460;7.090;2023-05-10T20:34:27;12.98;;;8.48;;
12359;SDS011;6244;51.460;7.090;2023-05-10T20:39:24;18.30;;;12.25;;
12359;SDS011;6244;51.460;7.090;2023-05-10T20:44:21;18.45;;;12.27;;
12359;SDS011;6244;51.460;7.090;2023-05-10T20:49:19;13.68;;;8.82;;
12359;SDS011;6244;51.460;7.090;2023-05-10T20:54:15;14.00;;;9.52;;
12359;SDS011;6244;51.460;7.090;2023-05-10T20:59:12;14.48;;;9.10;;
12359;SDS011;6244;51.460;7.090;2023-05-10T21:04:08;10.73;;;7.65;;
12359;SDS011;6244;51.460;7.090;2023-05-10T21:09:06;11.98;;;8.35;;
12359;SDS011;6244;51.460;7.090;2023-05-10T21:14:03;12.90;;;7.82;;
12359;SDS011;6244;51.460;7.090;2023-05-10T21:19:00;13.25;;;8.18;;
12359;SDS011;6244;51.460;7.090;2023-05-10T21:23:56;13.40;;;8.23;;
12359;SDS011;6244;51.460;7.090;2023-05-10T21:28:54;15.23;;;8.90;;
12359;SDS011;6244;51.460;7.090;2023-05-10T21:33:52;11.70;;;8.02;;
12359;SDS011;6244;51.460;7.090;2023-05-10T21:38:48;13.27;;;8.30;;
12359;SDS011;6244;51.460;7.090;2023-05-10T21:43:45;12.95;;;8.23;;
12359;SDS011;6244;51.460;7.090;2023-05-10T21:48:43;17.60;;;8.52;;
12359;SDS011;6244;51.460;7.090;2023-05-10T21:53:39;13.45;;;8.60;;
12359;SDS011;6244;51.460;7.090;2023-05-10T21:58:36;12.20;;;8.38;;
12359;SDS011;6244;51.460;7.090;2023-05-10T22:03:33;11.25;;;7.35;;
12359;SDS011;6244;51.460;7.090;2023-05-10T22:08:31;11.52;;;7.80;;
12359;SDS011;6244;51.460;7.090;2023-05-10T22:13:28;11.30;;;8.15;;
12359;SDS011;6244;51.460;7.090;2023-05-10T22:18:24;11.52;;;8.07;;
12359;SDS011;6244;51.460;7.090;2023-05-10T22:23:21;12.57;;;8.55;;
12359;SDS011;6244;51.460;7.090;2023-05-10T22:28:18;17.17;;;9.15;;
12359;SDS011;6244;51.460;7.090;2023-05-10T22:33:15;16.08;;;10.85;;
12359;SDS011;6244;51.460;7.090;2023-05-10T22:38:12;19.10;;;10.50;;
12359;SDS011;6244;51.460;7.090;2023-05-10T22:43:08;18.67;;;11.15;;
12359;SDS011;6244;51.460;7.090;2023-05-10T22:48:06;16.55;;;10.85;;
12359;SDS011;6244;51.460;7.090;2023-05-10T22:53:03;15.80;;;10.43;;
12359;SDS011;6244;51.460;7.090;2023-05-10T22:58:00;16.10;;;10.98;;
12359;SDS011;6244;51.460;7.090;2023-05-10T23:02:57;16.75;;;9.85;;
12359;SDS011;6244;51.460;7.090;2023-05-10T23:07:55;16.45;;;10.57;;
12359;SDS011;6244;51.460;7.090;2023-05-10T23:12:52;15.40;;;9.85;;
12359;SDS011;6244;51.460;7.090;2023-05-10T23:17:49;18.73;;;10.50;;
12359;SDS011;6244;51.460;7.090;2023-05-10T23:22:46;17.17;;;10.73;;
12359;SDS011;6244;51.460;7.090;2023-05-10T23:27:44;20.05;;;12.43;;
12359;SDS011;6244;51.460;7.090;2023-05-10T23:32:41;17.23;;;11.48;;
12359;SDS011;6244;51.460;7.090;2023-05-10T23:37:37;19.05;;;10.80;;
12359;SDS011;6244;51.460;7.090;2023-05-10T23:42:36;19.33;;;11.48;;
12359;SDS011;6244;51.460;7.090;2023-05-10T23:47:33;22.83;;;13.07;;
12359;SDS011;6244;51.460;7.090;2023-05-10T23:52:30;20.10;;;12.40;;
12359;SDS011;6244;51.460;7.090;2023-05-10T23:57:27;21.60;;;13.05;;
